HKE52D RPLC-VHHH
Flight info
| Callsign | HKE52D |
|---|---|
| Flight time | 1h 37m |
| Altitude | 34000 |
| Route | RIANO5N RIANO TR25 CAB A461 NOMAN V533 BETTY |
| Aircraft | A20N/M-SDE2E3FGHIJ1RWXY/LB1 |
Departure
| Time | 2026-05-08 07:47 |
|---|---|
| Airport | Clark International Airport / Clark Air Base (RPLC) |
Arrival
| Time | 2026-05-08 09:24 |
|---|---|
| Airport | Hong Kong International Airport (VHHH) |
| Time | Latitude | Longitude | Altitude | Speed | Heading |
|---|---|---|---|---|---|
| 2026-05-08 07:15 | 15.19488 | 120.55989 | 474 ft | 0 kts | 291° |
| 2026-05-08 07:38 | 15.19483 | 120.56001 | 474 ft | 2 kts | 291° |
| 2026-05-08 07:38 | 15.19478 | 120.56015 | 474 ft | 2 kts | 291° |
| 2026-05-08 07:38 | 15.19473 | 120.56029 | 474 ft | 2 kts | 291° |
| 2026-05-08 07:39 | 15.19466 | 120.56044 | 474 ft | 2 kts | 312° |
| 2026-05-08 07:39 | 15.19454 | 120.56053 | 474 ft | 2 kts | 335° |
| 2026-05-08 07:39 | 15.19440 | 120.56057 | 474 ft | 2 kts | 359° |
| 2026-05-08 07:39 | 15.19428 | 120.56055 | 474 ft | 0 kts | 18° |
| 2026-05-08 07:40 | 15.19421 | 120.56053 | 474 ft | 0 kts | 22° |
| 2026-05-08 07:42 | 15.19437 | 120.56059 | 474 ft | 5 kts | 21° |
| 2026-05-08 07:43 | 15.19471 | 120.56097 | 474 ft | 10 kts | 85° |
| 2026-05-08 07:43 | 15.19450 | 120.56166 | 474 ft | 10 kts | 111° |
| 2026-05-08 07:43 | 15.19426 | 120.56233 | 474 ft | 9 kts | 103° |
| 2026-05-08 07:43 | 15.19463 | 120.56287 | 474 ft | 10 kts | 22° |
| 2026-05-08 07:44 | 15.19540 | 120.56318 | 474 ft | 13 kts | 21° |
| 2026-05-08 07:44 | 15.19637 | 120.56356 | 474 ft | 16 kts | 20° |
| 2026-05-08 07:44 | 15.19752 | 120.56402 | 474 ft | 18 kts | 20° |
| 2026-05-08 07:44 | 15.19878 | 120.56451 | 474 ft | 19 kts | 21° |
| 2026-05-08 07:45 | 15.19999 | 120.56499 | 474 ft | 14 kts | 21° |
| 2026-05-08 07:45 | 15.20078 | 120.56531 | 473 ft | 12 kts | 21° |
| 2026-05-08 07:45 | 15.20131 | 120.56570 | 473 ft | 9 kts | 67° |
| 2026-05-08 07:45 | 15.20146 | 120.56647 | 474 ft | 13 kts | 82° |
| 2026-05-08 07:46 | 15.20158 | 120.56743 | 474 ft | 12 kts | 90° |
| 2026-05-08 07:46 | 15.20136 | 120.56820 | 474 ft | 8 kts | 114° |
| 2026-05-08 07:46 | 15.20086 | 120.56833 | 474 ft | 11 kts | 201° |
| 2026-05-08 07:46 | 15.19806 | 120.56724 | 474 ft | 79 kts | 201° |
| 2026-05-08 07:47 | 15.19084 | 120.56438 | 474 ft | 141 kts | 200° |
| 2026-05-08 07:47 | 15.18052 | 120.56026 | 711 ft | 169 kts | 199° |
| 2026-05-08 07:47 | 15.16953 | 120.55585 | 1303 ft | 173 kts | 199° |
| 2026-05-08 07:47 | 15.15834 | 120.55135 | 1967 ft | 175 kts | 199° |
| 2026-05-08 07:48 | 15.14711 | 120.54683 | 2483 ft | 177 kts | 199° |
| 2026-05-08 07:48 | 15.13531 | 120.54211 | 2757 ft | 190 kts | 199° |
| 2026-05-08 07:48 | 15.12240 | 120.53708 | 3043 ft | 204 kts | 194° |
| 2026-05-08 07:48 | 15.10806 | 120.53664 | 3309 ft | 215 kts | 161° |
| 2026-05-08 07:49 | 15.09532 | 120.54518 | 3494 ft | 231 kts | 124° |
| 2026-05-08 07:49 | 15.08977 | 120.56075 | 3966 ft | 236 kts | 88° |
| 2026-05-08 07:49 | 15.09415 | 120.57669 | 4614 ft | 235 kts | 53° |
| 2026-05-08 07:49 | 15.10681 | 120.58699 | 5255 ft | 238 kts | 20° |
| 2026-05-08 07:50 | 15.12247 | 120.59172 | 5948 ft | 239 kts | 16° |
| 2026-05-08 07:50 | 15.13834 | 120.59643 | 6536 ft | 245 kts | 17° |
| 2026-05-08 07:50 | 15.15521 | 120.60159 | 6879 ft | 262 kts | 17° |
| 2026-05-08 07:50 | 15.17314 | 120.60716 | 7298 ft | 276 kts | 17° |
| 2026-05-08 07:51 | 15.19154 | 120.61298 | 7988 ft | 279 kts | 17° |
| 2026-05-08 07:51 | 15.21002 | 120.61897 | 8712 ft | 280 kts | 17° |
| 2026-05-08 07:51 | 15.22799 | 120.62662 | 9369 ft | 285 kts | 32° |
| 2026-05-08 07:51 | 15.24207 | 120.64093 | 10016 ft | 292 kts | 51° |
| 2026-05-08 07:52 | 15.25344 | 120.65881 | 10553 ft | 302 kts | 56° |
| 2026-05-08 07:52 | 15.26468 | 120.67789 | 10840 ft | 318 kts | 56° |
| 2026-05-08 07:52 | 15.27646 | 120.69767 | 11120 ft | 333 kts | 55° |
| 2026-05-08 07:52 | 15.28908 | 120.71842 | 11390 ft | 348 kts | 55° |
| 2026-05-08 07:53 | 15.30230 | 120.73985 | 11754 ft | 359 kts | 54° |
| 2026-05-08 07:53 | 15.31581 | 120.76161 | 12361 ft | 362 kts | 54° |
| 2026-05-08 07:53 | 15.32950 | 120.78359 | 13027 ft | 363 kts | 54° |
| 2026-05-08 07:53 | 15.34328 | 120.80567 | 13666 ft | 365 kts | 54° |
| 2026-05-08 07:54 | 15.35704 | 120.82763 | 14288 ft | 367 kts | 54° |
| 2026-05-08 07:54 | 15.37215 | 120.84892 | 14882 ft | 366 kts | 42° |
| 2026-05-08 07:54 | 15.39297 | 120.86295 | 15440 ft | 362 kts | 18° |
| 2026-05-08 07:54 | 15.41756 | 120.86733 | 16063 ft | 360 kts | 358° |
| 2026-05-08 07:55 | 15.44192 | 120.86302 | 16614 ft | 362 kts | 341° |
| 2026-05-08 07:55 | 15.46550 | 120.85377 | 17175 ft | 365 kts | 339° |
| 2026-05-08 07:55 | 15.48907 | 120.84412 | 17557 ft | 372 kts | 339° |
| 2026-05-08 07:55 | 15.51332 | 120.83429 | 18018 ft | 377 kts | 340° |
| 2026-05-08 07:56 | 15.53785 | 120.82449 | 18542 ft | 379 kts | 340° |
| 2026-05-08 07:56 | 15.56231 | 120.81480 | 19047 ft | 382 kts | 340° |
| 2026-05-08 07:56 | 15.58720 | 120.80501 | 19542 ft | 386 kts | 340° |
| 2026-05-08 07:56 | 15.61237 | 120.79515 | 20035 ft | 389 kts | 341° |
| 2026-05-08 07:57 | 15.63779 | 120.78521 | 20528 ft | 392 kts | 341° |
| 2026-05-08 07:57 | 15.66307 | 120.77535 | 21011 ft | 395 kts | 341° |
| 2026-05-08 07:57 | 15.68884 | 120.76529 | 21494 ft | 399 kts | 341° |
| 2026-05-08 07:57 | 15.71489 | 120.75513 | 21974 ft | 402 kts | 341° |
| 2026-05-08 07:58 | 15.74120 | 120.74487 | 22450 ft | 405 kts | 341° |
| 2026-05-08 07:58 | 15.76749 | 120.73462 | 22917 ft | 409 kts | 341° |
| 2026-05-08 07:58 | 15.79427 | 120.72418 | 23384 ft | 412 kts | 341° |
| 2026-05-08 07:58 | 15.82076 | 120.71384 | 23835 ft | 416 kts | 341° |
| 2026-05-08 07:59 | 15.84803 | 120.70321 | 24281 ft | 419 kts | 341° |
| 2026-05-08 07:59 | 15.87542 | 120.69252 | 24719 ft | 423 kts | 342° |
| 2026-05-08 07:59 | 15.90267 | 120.68188 | 25145 ft | 426 kts | 342° |
| 2026-05-08 07:59 | 15.93045 | 120.67103 | 25562 ft | 429 kts | 342° |
| 2026-05-08 08:00 | 15.95842 | 120.66010 | 25963 ft | 433 kts | 342° |
| 2026-05-08 08:00 | 15.98677 | 120.64902 | 26357 ft | 436 kts | 342° |
| 2026-05-08 08:00 | 16.01317 | 120.63871 | 26710 ft | 439 kts | 342° |
| 2026-05-08 08:00 | 16.04361 | 120.62681 | 27124 ft | 442 kts | 342° |
| 2026-05-08 08:01 | 16.07206 | 120.61568 | 27616 ft | 441 kts | 342° |
| 2026-05-08 08:01 | 16.10069 | 120.60447 | 28122 ft | 440 kts | 342° |
| 2026-05-08 08:01 | 16.12927 | 120.59328 | 28585 ft | 440 kts | 342° |
| 2026-05-08 08:01 | 16.15769 | 120.58215 | 29009 ft | 440 kts | 342° |
| 2026-05-08 08:02 | 16.18618 | 120.57101 | 29415 ft | 440 kts | 342° |
| 2026-05-08 08:02 | 16.21483 | 120.55979 | 29815 ft | 440 kts | 342° |
| 2026-05-08 08:02 | 16.24336 | 120.54861 | 30201 ft | 440 kts | 342° |
| 2026-05-08 08:02 | 16.27205 | 120.53737 | 30576 ft | 440 kts | 342° |
| 2026-05-08 08:03 | 16.30057 | 120.52619 | 30934 ft | 440 kts | 342° |
| 2026-05-08 08:03 | 16.32903 | 120.51503 | 31281 ft | 440 kts | 342° |
| 2026-05-08 08:03 | 16.35776 | 120.50375 | 31624 ft | 440 kts | 342° |
| 2026-05-08 08:03 | 16.38639 | 120.49252 | 31959 ft | 440 kts | 342° |
| 2026-05-08 08:04 | 16.41475 | 120.48139 | 32270 ft | 440 kts | 342° |
| 2026-05-08 08:04 | 16.44329 | 120.47018 | 32533 ft | 442 kts | 342° |
| 2026-05-08 08:04 | 16.47194 | 120.45893 | 32774 ft | 444 kts | 342° |
| 2026-05-08 08:04 | 16.50081 | 120.44759 | 33015 ft | 445 kts | 342° |
| 2026-05-08 08:05 | 16.52970 | 120.43623 | 33256 ft | 447 kts | 342° |
| 2026-05-08 08:05 | 16.55896 | 120.42473 | 33495 ft | 448 kts | 342° |
| 2026-05-08 08:05 | 16.58784 | 120.41337 | 33723 ft | 449 kts | 342° |
| 2026-05-08 08:05 | 16.61701 | 120.40189 | 33859 ft | 451 kts | 342° |
| 2026-05-08 08:06 | 16.64634 | 120.39024 | 33862 ft | 452 kts | 340° |
| 2026-05-08 08:06 | 16.70134 | 120.35919 | 33865 ft | 456 kts | 324° |
| 2026-05-08 08:07 | 16.74770 | 120.31372 | 33869 ft | 458 kts | 315° |
| 2026-05-08 08:07 | 16.79124 | 120.26575 | 33868 ft | 458 kts | 315° |
| 2026-05-08 08:08 | 16.83502 | 120.21772 | 33868 ft | 458 kts | 315° |
| 2026-05-08 08:08 | 16.87890 | 120.16987 | 33868 ft | 458 kts | 315° |
| 2026-05-08 08:09 | 16.92310 | 120.12176 | 33868 ft | 458 kts | 315° |
| 2026-05-08 08:09 | 16.96703 | 120.07395 | 33868 ft | 458 kts | 315° |
| 2026-05-08 08:10 | 17.01093 | 120.02615 | 33867 ft | 459 kts | 315° |
| 2026-05-08 08:10 | 17.05515 | 119.97797 | 33867 ft | 460 kts | 315° |
| 2026-05-08 08:11 | 17.09940 | 119.92972 | 33867 ft | 462 kts | 315° |
| 2026-05-08 08:11 | 17.14374 | 119.88133 | 33867 ft | 463 kts | 315° |
| 2026-05-08 08:12 | 17.18817 | 119.83281 | 33868 ft | 463 kts | 315° |
| 2026-05-08 08:12 | 17.23244 | 119.78444 | 33868 ft | 463 kts | 315° |
| 2026-05-08 08:13 | 17.27696 | 119.73576 | 33868 ft | 463 kts | 315° |
| 2026-05-08 08:13 | 17.32126 | 119.68727 | 33868 ft | 463 kts | 315° |
| 2026-05-08 08:14 | 17.36556 | 119.63876 | 33868 ft | 463 kts | 315° |
| 2026-05-08 08:14 | 17.40998 | 119.59006 | 33868 ft | 463 kts | 315° |
| 2026-05-08 08:15 | 17.45417 | 119.54160 | 33868 ft | 463 kts | 315° |
| 2026-05-08 08:15 | 17.49866 | 119.49275 | 33868 ft | 463 kts | 315° |
| 2026-05-08 08:16 | 17.54297 | 119.44408 | 33868 ft | 463 kts | 315° |
| 2026-05-08 08:16 | 17.58719 | 119.39546 | 33868 ft | 463 kts | 315° |
| 2026-05-08 08:17 | 17.63151 | 119.34670 | 33867 ft | 463 kts | 315° |
| 2026-05-08 08:17 | 17.67575 | 119.29799 | 33867 ft | 463 kts | 315° |
| 2026-05-08 08:18 | 17.72007 | 119.24915 | 33868 ft | 463 kts | 315° |
| 2026-05-08 08:18 | 17.76430 | 119.20038 | 33868 ft | 463 kts | 315° |
| 2026-05-08 08:19 | 17.80844 | 119.15166 | 33868 ft | 463 kts | 315° |
| 2026-05-08 08:19 | 17.85268 | 119.10282 | 33868 ft | 463 kts | 315° |
| 2026-05-08 08:20 | 17.89716 | 119.05366 | 33868 ft | 463 kts | 315° |
| 2026-05-08 08:20 | 17.94141 | 119.00474 | 33868 ft | 463 kts | 315° |
| 2026-05-08 08:21 | 17.98528 | 118.95621 | 33868 ft | 461 kts | 314° |
| 2026-05-08 08:21 | 18.02945 | 118.90727 | 33868 ft | 460 kts | 314° |
| 2026-05-08 08:22 | 18.07329 | 118.85867 | 33868 ft | 458 kts | 314° |
| 2026-05-08 08:22 | 18.11666 | 118.81055 | 33868 ft | 456 kts | 314° |
| 2026-05-08 08:23 | 18.16022 | 118.76216 | 33868 ft | 455 kts | 314° |
| 2026-05-08 08:23 | 18.20344 | 118.71411 | 33868 ft | 455 kts | 314° |
| 2026-05-08 08:24 | 18.24678 | 118.66590 | 33868 ft | 455 kts | 314° |
| 2026-05-08 08:24 | 18.29013 | 118.61765 | 33868 ft | 455 kts | 314° |
| 2026-05-08 08:25 | 18.33353 | 118.56931 | 33868 ft | 455 kts | 314° |
| 2026-05-08 08:25 | 18.37672 | 118.52117 | 33868 ft | 455 kts | 314° |
| 2026-05-08 08:26 | 18.41995 | 118.47296 | 33868 ft | 455 kts | 314° |
| 2026-05-08 08:26 | 18.46310 | 118.42478 | 33868 ft | 455 kts | 314° |
| 2026-05-08 08:27 | 18.50661 | 118.37618 | 33868 ft | 455 kts | 314° |
| 2026-05-08 08:27 | 18.54971 | 118.32797 | 33867 ft | 455 kts | 313° |
| 2026-05-08 08:28 | 18.59288 | 118.27966 | 33868 ft | 455 kts | 313° |
| 2026-05-08 08:28 | 18.63601 | 118.23135 | 33868 ft | 455 kts | 313° |
| 2026-05-08 08:29 | 18.67940 | 118.18272 | 33868 ft | 455 kts | 313° |
| 2026-05-08 08:29 | 18.72257 | 118.13429 | 33868 ft | 455 kts | 313° |
| 2026-05-08 08:30 | 18.76584 | 118.08571 | 33868 ft | 455 kts | 313° |
| 2026-05-08 08:30 | 18.83044 | 118.01310 | 33868 ft | 455 kts | 313° |
| 2026-05-08 08:31 | 18.87349 | 117.96465 | 33868 ft | 455 kts | 313° |
| 2026-05-08 08:31 | 18.91658 | 117.91615 | 33867 ft | 456 kts | 313° |
| 2026-05-08 08:32 | 18.96017 | 117.86705 | 33867 ft | 458 kts | 313° |
| 2026-05-08 08:32 | 19.00370 | 117.81797 | 33867 ft | 460 kts | 313° |
| 2026-05-08 08:33 | 19.04718 | 117.76880 | 33867 ft | 461 kts | 312° |
| 2026-05-08 08:33 | 19.09066 | 117.71914 | 33868 ft | 462 kts | 312° |
| 2026-05-08 08:34 | 19.13424 | 117.66930 | 33867 ft | 462 kts | 312° |
| 2026-05-08 08:34 | 19.17760 | 117.61973 | 33868 ft | 462 kts | 312° |
| 2026-05-08 08:35 | 19.22117 | 117.56989 | 33868 ft | 462 kts | 312° |
| 2026-05-08 08:35 | 19.26474 | 117.52001 | 33868 ft | 462 kts | 312° |
| 2026-05-08 08:36 | 19.30815 | 117.47027 | 33868 ft | 462 kts | 312° |
| 2026-05-08 08:36 | 19.35155 | 117.42050 | 33868 ft | 462 kts | 312° |
| 2026-05-08 08:37 | 19.39485 | 117.37080 | 33868 ft | 462 kts | 312° |
| 2026-05-08 08:37 | 19.43834 | 117.32085 | 33867 ft | 462 kts | 311° |
| 2026-05-08 08:38 | 19.48158 | 117.27113 | 33868 ft | 462 kts | 311° |
| 2026-05-08 08:38 | 19.52511 | 117.22103 | 33868 ft | 462 kts | 311° |
| 2026-05-08 08:39 | 19.56845 | 117.17112 | 33868 ft | 462 kts | 311° |
| 2026-05-08 08:39 | 19.61178 | 117.12117 | 33868 ft | 462 kts | 311° |
| 2026-05-08 08:40 | 19.65500 | 117.07122 | 33868 ft | 461 kts | 312° |
| 2026-05-08 08:40 | 19.69817 | 117.02132 | 33869 ft | 458 kts | 313° |
| 2026-05-08 08:41 | 19.74084 | 116.97205 | 33872 ft | 453 kts | 314° |
| 2026-05-08 08:41 | 19.78327 | 116.92303 | 33880 ft | 449 kts | 314° |
| 2026-05-08 08:42 | 19.82513 | 116.87463 | 33893 ft | 444 kts | 314° |
| 2026-05-08 08:42 | 19.86663 | 116.82656 | 33907 ft | 443 kts | 314° |
| 2026-05-08 08:43 | 19.90734 | 116.77935 | 33916 ft | 443 kts | 314° |
| 2026-05-08 08:43 | 19.94892 | 116.73110 | 33920 ft | 442 kts | 314° |
| 2026-05-08 08:44 | 19.98807 | 116.68131 | 33920 ft | 443 kts | 308° |
| 2026-05-08 08:44 | 20.02218 | 116.62634 | 33921 ft | 444 kts | 301° |
| 2026-05-08 08:45 | 20.05114 | 116.56897 | 33921 ft | 444 kts | 298° |
| 2026-05-08 08:45 | 20.07979 | 116.51067 | 33920 ft | 444 kts | 298° |
| 2026-05-08 08:46 | 20.10841 | 116.45254 | 33921 ft | 444 kts | 298° |
| 2026-05-08 08:46 | 20.13691 | 116.39471 | 33921 ft | 444 kts | 298° |
| 2026-05-08 08:47 | 20.16549 | 116.33669 | 33921 ft | 444 kts | 298° |
| 2026-05-08 08:47 | 20.19424 | 116.27825 | 33921 ft | 444 kts | 298° |
| 2026-05-08 08:48 | 20.22267 | 116.22041 | 33921 ft | 444 kts | 298° |
| 2026-05-08 08:48 | 20.25134 | 116.16202 | 33921 ft | 444 kts | 298° |
| 2026-05-08 08:49 | 20.27977 | 116.10404 | 33921 ft | 444 kts | 298° |
| 2026-05-08 08:49 | 20.30823 | 116.04594 | 33921 ft | 444 kts | 298° |
| 2026-05-08 08:50 | 20.33685 | 115.98750 | 33921 ft | 444 kts | 298° |
| 2026-05-08 08:50 | 20.36523 | 115.92947 | 33921 ft | 444 kts | 298° |
| 2026-05-08 08:51 | 20.39378 | 115.87103 | 33921 ft | 444 kts | 298° |
| 2026-05-08 08:51 | 20.42222 | 115.81272 | 33921 ft | 444 kts | 298° |
| 2026-05-08 08:52 | 20.45067 | 115.75436 | 33921 ft | 444 kts | 298° |
| 2026-05-08 08:52 | 20.47907 | 115.69602 | 33921 ft | 444 kts | 298° |
| 2026-05-08 08:53 | 20.50731 | 115.63795 | 33921 ft | 444 kts | 298° |
| 2026-05-08 08:53 | 20.53752 | 115.58045 | 33920 ft | 444 kts | 303° |
| 2026-05-08 08:54 | 20.57321 | 115.52716 | 33921 ft | 443 kts | 310° |
| 2026-05-08 08:54 | 20.61441 | 115.47849 | 33921 ft | 442 kts | 316° |
| 2026-05-08 08:55 | 20.65805 | 115.43285 | 33921 ft | 442 kts | 317° |
| 2026-05-08 08:55 | 20.70185 | 115.38721 | 33921 ft | 442 kts | 317° |
| 2026-05-08 08:56 | 20.74569 | 115.34132 | 33920 ft | 442 kts | 316° |
| 2026-05-08 08:56 | 20.78946 | 115.29543 | 33916 ft | 442 kts | 316° |
| 2026-05-08 08:57 | 20.81115 | 115.27268 | 33581 ft | 442 kts | 316° |
| 2026-05-08 08:57 | 20.83306 | 115.24966 | 33019 ft | 442 kts | 316° |
| 2026-05-08 08:57 | 20.85486 | 115.22676 | 32324 ft | 443 kts | 316° |
| 2026-05-08 08:57 | 20.87689 | 115.20361 | 31568 ft | 446 kts | 316° |
| 2026-05-08 08:58 | 20.89879 | 115.18058 | 30794 ft | 449 kts | 316° |
| 2026-05-08 08:58 | 20.92111 | 115.15710 | 29986 ft | 451 kts | 316° |
| 2026-05-08 08:58 | 20.94343 | 115.13361 | 29177 ft | 454 kts | 316° |
| 2026-05-08 08:58 | 20.96592 | 115.10993 | 28351 ft | 455 kts | 316° |
| 2026-05-08 08:59 | 20.98817 | 115.08649 | 27531 ft | 457 kts | 316° |
| 2026-05-08 08:59 | 21.01077 | 115.06265 | 26933 ft | 452 kts | 316° |
| 2026-05-08 08:59 | 21.03298 | 115.03924 | 26406 ft | 446 kts | 316° |
| 2026-05-08 08:59 | 21.05463 | 115.01641 | 25938 ft | 439 kts | 316° |
| 2026-05-08 09:00 | 21.07628 | 114.99358 | 25492 ft | 431 kts | 316° |
| 2026-05-08 09:00 | 21.09721 | 114.97150 | 25062 ft | 424 kts | 316° |
| 2026-05-08 09:00 | 21.11820 | 114.94936 | 24592 ft | 418 kts | 316° |
| 2026-05-08 09:00 | 21.13858 | 114.92783 | 24115 ft | 414 kts | 316° |
| 2026-05-08 09:01 | 21.15894 | 114.90631 | 23625 ft | 410 kts | 316° |
| 2026-05-08 09:01 | 21.17898 | 114.88511 | 23133 ft | 406 kts | 316° |
| 2026-05-08 09:01 | 21.19902 | 114.86391 | 22636 ft | 403 kts | 316° |
| 2026-05-08 09:01 | 21.21861 | 114.84319 | 22145 ft | 399 kts | 316° |
| 2026-05-08 09:02 | 21.23829 | 114.82236 | 21648 ft | 396 kts | 316° |
| 2026-05-08 09:02 | 21.25775 | 114.80173 | 21153 ft | 393 kts | 316° |
| 2026-05-08 09:02 | 21.27715 | 114.78118 | 20655 ft | 390 kts | 316° |
| 2026-05-08 09:02 | 21.29610 | 114.76109 | 20168 ft | 387 kts | 316° |
| 2026-05-08 09:03 | 21.31517 | 114.74088 | 19676 ft | 384 kts | 316° |
| 2026-05-08 09:03 | 21.33417 | 114.72073 | 19163 ft | 382 kts | 316° |
| 2026-05-08 09:03 | 21.35272 | 114.70105 | 18669 ft | 379 kts | 316° |
| 2026-05-08 09:03 | 21.37141 | 114.68120 | 18173 ft | 377 kts | 316° |
| 2026-05-08 09:04 | 21.38995 | 114.66151 | 17682 ft | 374 kts | 316° |
| 2026-05-08 09:04 | 21.40823 | 114.64209 | 17196 ft | 372 kts | 316° |
| 2026-05-08 09:04 | 21.42639 | 114.62279 | 16711 ft | 369 kts | 316° |
| 2026-05-08 09:04 | 21.44468 | 114.60335 | 16220 ft | 367 kts | 316° |
| 2026-05-08 09:05 | 21.46267 | 114.58421 | 15736 ft | 364 kts | 316° |
| 2026-05-08 09:05 | 21.48190 | 114.56686 | 15245 ft | 361 kts | 326° |
| 2026-05-08 09:05 | 21.50346 | 114.55374 | 14764 ft | 359 kts | 336° |
| 2026-05-08 09:05 | 21.52668 | 114.54446 | 14290 ft | 357 kts | 341° |
| 2026-05-08 09:06 | 21.55010 | 114.53644 | 13820 ft | 354 kts | 342° |
| 2026-05-08 09:06 | 21.57352 | 114.52855 | 13351 ft | 351 kts | 342° |
| 2026-05-08 09:06 | 21.59665 | 114.52070 | 12978 ft | 346 kts | 342° |
| 2026-05-08 09:06 | 21.61927 | 114.51408 | 12916 ft | 336 kts | 346° |
| 2026-05-08 09:07 | 21.64225 | 114.50895 | 12916 ft | 336 kts | 348° |
| 2026-05-08 09:07 | 21.66512 | 114.50427 | 12915 ft | 336 kts | 349° |
| 2026-05-08 09:07 | 21.68781 | 114.49969 | 12914 ft | 336 kts | 349° |
| 2026-05-08 09:07 | 21.71074 | 114.49506 | 12914 ft | 336 kts | 349° |
| 2026-05-08 09:08 | 21.73378 | 114.49039 | 12912 ft | 336 kts | 349° |
| 2026-05-08 09:08 | 21.75672 | 114.48573 | 12908 ft | 342 kts | 349° |
| 2026-05-08 09:08 | 21.78035 | 114.48093 | 12760 ft | 348 kts | 349° |
| 2026-05-08 09:08 | 21.80411 | 114.47611 | 12281 ft | 345 kts | 349° |
| 2026-05-08 09:09 | 21.82725 | 114.47140 | 11819 ft | 343 kts | 349° |
| 2026-05-08 09:09 | 21.85071 | 114.46663 | 11344 ft | 340 kts | 349° |
| 2026-05-08 09:09 | 21.87373 | 114.46194 | 10883 ft | 338 kts | 349° |
| 2026-05-08 09:09 | 21.89673 | 114.45725 | 10444 ft | 336 kts | 349° |
| 2026-05-08 09:10 | 21.91939 | 114.45264 | 10261 ft | 331 kts | 349° |
| 2026-05-08 09:10 | 21.94178 | 114.44807 | 10096 ft | 323 kts | 348° |
| 2026-05-08 09:10 | 21.96386 | 114.44357 | 9987 ft | 323 kts | 348° |
| 2026-05-08 09:10 | 21.98582 | 114.43909 | 9602 ft | 323 kts | 348° |
| 2026-05-08 09:11 | 22.00763 | 114.43464 | 9198 ft | 319 kts | 348° |
| 2026-05-08 09:11 | 22.02929 | 114.43021 | 8807 ft | 318 kts | 348° |
| 2026-05-08 09:11 | 22.05096 | 114.42579 | 8421 ft | 317 kts | 348° |
| 2026-05-08 09:11 | 22.07253 | 114.42138 | 8071 ft | 315 kts | 348° |
| 2026-05-08 09:12 | 22.09404 | 114.41698 | 8000 ft | 314 kts | 348° |
| 2026-05-08 09:12 | 22.11475 | 114.41275 | 7994 ft | 297 kts | 348° |
| 2026-05-08 09:12 | 22.13459 | 114.40871 | 7991 ft | 282 kts | 348° |
| 2026-05-08 09:12 | 22.15366 | 114.40481 | 7995 ft | 281 kts | 348° |
| 2026-05-08 09:13 | 22.17291 | 114.40086 | 7997 ft | 281 kts | 348° |
| 2026-05-08 09:13 | 22.19198 | 114.39610 | 7997 ft | 281 kts | 343° |
| 2026-05-08 09:13 | 22.21053 | 114.38975 | 7998 ft | 281 kts | 341° |
| 2026-05-08 09:13 | 22.22899 | 114.38294 | 7961 ft | 277 kts | 340° |
| 2026-05-08 09:14 | 22.24709 | 114.37620 | 7596 ft | 277 kts | 340° |
| 2026-05-08 09:14 | 22.26516 | 114.36950 | 7153 ft | 278 kts | 340° |
| 2026-05-08 09:14 | 22.28344 | 114.36273 | 6768 ft | 276 kts | 340° |
| 2026-05-08 09:14 | 22.30145 | 114.35608 | 6389 ft | 275 kts | 340° |
| 2026-05-08 09:15 | 22.31956 | 114.34939 | 6054 ft | 272 kts | 340° |
| 2026-05-08 09:15 | 22.33740 | 114.34280 | 5998 ft | 267 kts | 340° |
| 2026-05-08 09:15 | 22.35448 | 114.33651 | 5991 ft | 251 kts | 340° |
| 2026-05-08 09:15 | 22.37049 | 114.33061 | 5985 ft | 236 kts | 340° |
| 2026-05-08 09:16 | 22.38534 | 114.32474 | 5972 ft | 220 kts | 331° |
| 2026-05-08 09:16 | 22.39703 | 114.31511 | 5963 ft | 212 kts | 309° |
| 2026-05-08 09:16 | 22.40446 | 114.30137 | 5732 ft | 212 kts | 287° |
| 2026-05-08 09:16 | 22.40788 | 114.28581 | 5472 ft | 211 kts | 281° |
| 2026-05-08 09:17 | 22.41054 | 114.27016 | 5098 ft | 215 kts | 280° |
| 2026-05-08 09:17 | 22.41317 | 114.25455 | 5014 ft | 201 kts | 281° |
| 2026-05-08 09:17 | 22.41570 | 114.23995 | 4955 ft | 194 kts | 281° |
| 2026-05-08 09:17 | 22.41822 | 114.22570 | 4885 ft | 192 kts | 281° |
| 2026-05-08 09:18 | 22.42064 | 114.21165 | 4840 ft | 192 kts | 278° |
| 2026-05-08 09:18 | 22.42055 | 114.19704 | 4813 ft | 193 kts | 263° |
| 2026-05-08 09:18 | 22.41779 | 114.18285 | 4631 ft | 193 kts | 255° |
| 2026-05-08 09:18 | 22.41398 | 114.16908 | 4427 ft | 192 kts | 253° |
| 2026-05-08 09:19 | 22.40978 | 114.15527 | 4233 ft | 192 kts | 252° |
| 2026-05-08 09:19 | 22.40555 | 114.14185 | 4149 ft | 191 kts | 252° |
| 2026-05-08 09:19 | 22.40113 | 114.12811 | 4111 ft | 191 kts | 251° |
| 2026-05-08 09:19 | 22.39677 | 114.11462 | 3960 ft | 192 kts | 251° |
| 2026-05-08 09:20 | 22.39236 | 114.10107 | 3701 ft | 190 kts | 251° |
| 2026-05-08 09:20 | 22.38796 | 114.08752 | 3438 ft | 190 kts | 251° |
| 2026-05-08 09:20 | 22.38361 | 114.07416 | 3179 ft | 188 kts | 251° |
| 2026-05-08 09:20 | 22.37927 | 114.06081 | 2921 ft | 188 kts | 251° |
| 2026-05-08 09:21 | 22.37497 | 114.04755 | 2665 ft | 188 kts | 251° |
| 2026-05-08 09:21 | 22.37065 | 114.03425 | 2408 ft | 187 kts | 251° |
| 2026-05-08 09:22 | 22.34734 | 113.96216 | 982 ft | 143 kts | 251° |
| 2026-05-08 09:23 | 22.34409 | 113.95209 | 797 ft | 141 kts | 251° |
| 2026-05-08 09:23 | 22.34088 | 113.94214 | 614 ft | 141 kts | 251° |
| 2026-05-08 09:23 | 22.33764 | 113.93209 | 420 ft | 141 kts | 251° |
| 2026-05-08 09:23 | 22.33443 | 113.92215 | 227 ft | 140 kts | 251° |
| 2026-05-08 09:24 | 22.33126 | 113.91229 | 50 ft | 139 kts | 251° |
| 2026-05-08 09:24 | 22.32844 | 113.90345 | 31 ft | 100 kts | 250° |
| 2026-05-08 09:24 | 22.32676 | 113.89832 | 31 ft | 45 kts | 250° |
| 2026-05-08 09:24 | 22.32577 | 113.89629 | 30 ft | 27 kts | 231° |
| 2026-05-08 09:25 | 22.32486 | 113.89533 | 29 ft | 12 kts | 218° |
| 2026-05-08 09:25 | 22.32417 | 113.89551 | 29 ft | 11 kts | 112° |
| 2026-05-08 09:25 | 22.32427 | 113.89619 | 31 ft | 8 kts | 69° |
| 2026-05-08 09:25 | 22.32447 | 113.89681 | 31 ft | 9 kts | 70° |
| 2026-05-08 09:26 | 22.32470 | 113.89747 | 31 ft | 9 kts | 71° |
| 2026-05-08 09:26 | 22.32492 | 113.89819 | 31 ft | 10 kts | 71° |
| 2026-05-08 09:26 | 22.32516 | 113.89896 | 31 ft | 11 kts | 71° |
| 2026-05-08 09:26 | 22.32542 | 113.89977 | 31 ft | 11 kts | 70° |
| 2026-05-08 09:27 | 22.32570 | 113.90060 | 31 ft | 12 kts | 71° |
| 2026-05-08 09:27 | 22.32598 | 113.90147 | 31 ft | 12 kts | 70° |
| 2026-05-08 09:27 | 22.32624 | 113.90239 | 31 ft | 12 kts | 86° |
| 2026-05-08 09:27 | 22.32566 | 113.90298 | 31 ft | 12 kts | 161° |
| 2026-05-08 09:28 | 22.32479 | 113.90329 | 31 ft | 13 kts | 161° |
| 2026-05-08 09:28 | 22.32386 | 113.90363 | 31 ft | 14 kts | 161° |
| 2026-05-08 09:28 | 22.32289 | 113.90399 | 31 ft | 15 kts | 161° |
| 2026-05-08 09:28 | 22.32186 | 113.90437 | 31 ft | 15 kts | 161° |
| 2026-05-08 09:29 | 22.32082 | 113.90477 | 31 ft | 15 kts | 161° |
| 2026-05-08 09:29 | 22.31977 | 113.90516 | 31 ft | 15 kts | 161° |
| 2026-05-08 09:29 | 22.31873 | 113.90553 | 31 ft | 15 kts | 161° |
| 2026-05-08 09:29 | 22.31768 | 113.90592 | 31 ft | 15 kts | 161° |
| 2026-05-08 09:30 | 22.31680 | 113.90624 | 32 ft | 9 kts | 161° |
| 2026-05-08 09:30 | 22.31668 | 113.90628 | 32 ft | 0 kts | 161° |
| 2026-05-08 09:30 | 22.31661 | 113.90631 | 32 ft | 0 kts | 161° |
| 2026-05-08 09:30 | 22.31660 | 113.90631 | 32 ft | 0 kts | 161° |
| 2026-05-08 09:32 | 22.31613 | 113.90648 | 32 ft | 14 kts | 161° |
| 2026-05-08 09:32 | 22.31575 | 113.90730 | 32 ft | 13 kts | 68° |
| 2026-05-08 09:32 | 22.31608 | 113.90823 | 32 ft | 13 kts | 71° |
| 2026-05-08 09:32 | 22.31639 | 113.90921 | 32 ft | 13 kts | 71° |
| 2026-05-08 09:33 | 22.31670 | 113.91021 | 31 ft | 14 kts | 70° |
| 2026-05-08 09:33 | 22.31703 | 113.91122 | 32 ft | 14 kts | 70° |
| 2026-05-08 09:33 | 22.31737 | 113.91224 | 32 ft | 14 kts | 70° |
| 2026-05-08 09:33 | 22.31769 | 113.91327 | 32 ft | 14 kts | 72° |
| 2026-05-08 09:34 | 22.31733 | 113.91405 | 32 ft | 12 kts | 160° |
| 2026-05-08 09:34 | 22.31650 | 113.91434 | 32 ft | 12 kts | 162° |
| 2026-05-08 09:34 | 22.31568 | 113.91464 | 32 ft | 12 kts | 160° |
| 2026-05-08 09:34 | 22.31485 | 113.91496 | 32 ft | 10 kts | 155° |
| 2026-05-08 09:35 | 22.31479 | 113.91570 | 32 ft | 11 kts | 70° |
| 2026-05-08 09:35 | 22.31506 | 113.91652 | 32 ft | 11 kts | 70° |
| 2026-05-08 09:35 | 22.31531 | 113.91730 | 32 ft | 9 kts | 79° |
| 2026-05-08 09:35 | 22.31489 | 113.91779 | 32 ft | 10 kts | 163° |
| 2026-05-08 09:36 | 22.31418 | 113.91805 | 32 ft | 11 kts | 161° |
| 2026-05-08 09:36 | 22.31343 | 113.91833 | 32 ft | 11 kts | 161° |
| 2026-05-08 09:36 | 22.31264 | 113.91862 | 32 ft | 12 kts | 161° |
| 2026-05-08 09:36 | 22.31181 | 113.91892 | 32 ft | 12 kts | 161° |
| 2026-05-08 09:37 | 22.31095 | 113.91924 | 32 ft | 13 kts | 161° |
| 2026-05-08 09:37 | 22.31007 | 113.91957 | 32 ft | 13 kts | 161° |
| 2026-05-08 09:37 | 22.30932 | 113.91985 | 32 ft | 5 kts | 161° |
| 2026-05-08 09:37 | 22.30905 | 113.91963 | 32 ft | 5 kts | 252° |
| 2026-05-08 09:38 | 22.30895 | 113.91933 | 32 ft | 3 kts | 251° |
| 2026-05-08 09:38 | 22.30888 | 113.91909 | 32 ft | 3 kts | 251° |
| 2026-05-08 09:38 | 22.30885 | 113.91901 | 32 ft | 0 kts | 252° |